createdAt,value
2022-11-27T00:00:50.459Z,29.33
2022-11-27T00:03:18.363Z,26.73
2022-11-27T00:05:53.233Z,27.42
2022-11-27T00:08:21.127Z,26.45
2022-11-27T00:10:48.913Z,31.98
2022-11-27T00:13:16.867Z,30.70
2022-11-27T00:15:46.192Z,27.67
2022-11-27T00:18:14.034Z,30.05
2022-11-27T00:20:41.893Z,27.00
2022-11-27T00:23:09.751Z,31.38
2022-11-27T00:25:37.520Z,27.75
2022-11-27T00:28:05.598Z,33.63
2022-11-27T00:30:33.458Z,28.73
2022-11-27T00:33:02.701Z,28.85
2022-11-27T00:35:30.502Z,25.10
2022-11-27T00:37:59.324Z,26.60
2022-11-27T00:40:27.292Z,31.38
2022-11-27T00:42:55.235Z,32.47
2022-11-27T00:45:23.254Z,28.73
2022-11-27T00:47:51.203Z,30.02
2022-11-27T00:50:20.995Z,32.13
2022-11-27T00:52:49.137Z,28.88
2022-11-27T00:55:17.157Z,28.35
2022-11-27T00:57:45.228Z,29.92
2022-11-27T01:00:14.576Z,24.08
2022-11-27T01:02:42.450Z,27.27
2022-11-27T01:05:10.671Z,32.83
2022-11-27T01:07:39.949Z,29.83
2022-11-27T01:10:09.385Z,30.27
2022-11-27T01:12:37.265Z,29.77
2022-11-27T01:15:05.820Z,31.80
2022-11-27T01:17:33.576Z,30.70
2022-11-27T01:20:01.585Z,29.98
2022-11-27T01:22:29.564Z,32.20
2022-11-27T01:24:58.700Z,29.27
2022-11-27T01:27:26.551Z,28.48
2022-11-27T01:29:54.373Z,31.17
2022-11-27T01:32:22.510Z,34.50
2022-11-27T01:34:50.518Z,30.27
2022-11-27T01:37:18.917Z,29.95
2022-11-27T01:39:46.824Z,36.08
2022-11-27T01:42:16.151Z,31.33
2022-11-27T01:44:50.956Z,34.40
2022-11-27T01:47:30.606Z,28.13
2022-11-27T01:50:06.335Z,28.90
2022-11-27T01:52:38.036Z,30.35
2022-11-27T01:55:09.910Z,31.73
2022-11-27T01:57:44.588Z,31.23
2022-11-27T02:00:14.416Z,29.13
2022-11-27T02:02:43.188Z,30.40
2022-11-27T02:05:12.332Z,31.88
2022-11-27T02:07:40.242Z,31.30
2022-11-27T02:10:08.946Z,28.83
2022-11-27T02:12:47.532Z,28.65
2022-11-27T02:15:25.240Z,26.52
2022-11-27T02:17:58.841Z,23.17
2022-11-27T02:20:36.666Z,23.67
2022-11-27T02:23:24.076Z,22.25
2022-11-27T02:26:06.803Z,26.88
2022-11-27T02:28:45.816Z,19.17
2022-11-27T02:31:23.112Z,19.48
2022-11-27T02:33:55.822Z,25.55
2022-11-27T02:36:27.853Z,24.30
2022-11-27T02:39:03.023Z,23.85
2022-11-27T02:41:34.442Z,26.25
2022-11-27T02:44:03.846Z,27.58
2022-11-27T02:46:34.069Z,28.15
2022-11-27T02:49:10.124Z,25.10
2022-11-27T02:51:42.368Z,26.77
2022-11-27T02:54:14.698Z,26.45
2022-11-27T02:56:44.801Z,23.70
2022-11-27T02:59:15.643Z,25.52
2022-11-27T03:01:50.143Z,22.92
2022-11-27T03:04:22.130Z,21.92
2022-11-27T03:06:55.008Z,24.13
2022-11-27T03:09:28.197Z,25.10
2022-11-27T03:11:56.727Z,21.35
2022-11-27T03:14:25.514Z,24.08
2022-11-27T03:17:04.178Z,24.05
2022-11-27T03:19:43.296Z,17.88
2022-11-27T03:22:12.802Z,16.50
2022-11-27T03:24:41.088Z,17.08
2022-11-27T03:27:10.431Z,18.70
2022-11-27T03:29:42.726Z,17.98
2022-11-27T03:32:12.243Z,19.27
2022-11-27T03:34:41.122Z,22.20
2022-11-27T03:37:09.477Z,20.38
2022-11-27T03:39:37.922Z,16.88
2022-11-27T03:42:13.951Z,19.38
2022-11-27T03:44:46.499Z,18.90
2022-11-27T03:47:31.145Z,19.67
2022-11-27T03:50:14.639Z,23.27
2022-11-27T03:52:49.329Z,19.17
2022-11-27T03:55:23.433Z,17.77
2022-11-27T03:57:59.940Z,16.65
2022-11-27T04:00:31.360Z,19.38
2022-11-27T04:03:00.989Z,21.88
2022-11-27T04:05:29.162Z,19.35
2022-11-27T04:07:57.408Z,16.98
2022-11-27T04:10:25.276Z,14.40
2022-11-27T04:12:53.147Z,17.10
2022-11-27T04:15:21.220Z,17.88
2022-11-27T04:17:49.294Z,13.35
2022-11-27T04:20:18.535Z,14.48
2022-11-27T04:22:46.424Z,12.18
2022-11-27T04:25:14.302Z,16.98
2022-11-27T04:27:43.441Z,13.07
2022-11-27T04:30:13.890Z,12.43
2022-11-27T04:32:42.318Z,16.52
2022-11-27T04:35:11.322Z,12.20
2022-11-27T04:37:40.911Z,15.55
2022-11-27T04:40:10.051Z,12.80
2022-11-27T04:42:38.909Z,11.77
2022-11-27T04:45:08.745Z,14.30
2022-11-27T04:47:37.216Z,13.40
2022-11-27T04:50:05.914Z,14.88
2022-11-27T04:52:36.206Z,13.18
2022-11-27T04:55:06.185Z,15.35
2022-11-27T04:57:34.254Z,14.90
2022-11-27T05:00:02.982Z,16.50
2022-11-27T05:02:31.757Z,14.30
2022-11-27T05:04:59.589Z,14.45
2022-11-27T05:07:28.300Z,13.15
2022-11-27T05:09:56.214Z,16.65
2022-11-27T05:12:25.816Z,16.17
2022-11-27T05:14:54.081Z,14.93
2022-11-27T05:17:24.278Z,16.73
2022-11-27T05:19:52.143Z,16.38
2022-11-27T05:22:20.996Z,13.88
2022-11-27T05:24:48.930Z,16.45
2022-11-27T05:27:16.834Z,14.85
2022-11-27T05:29:46.245Z,15.82
2022-11-27T05:32:15.932Z,16.60
2022-11-27T05:34:43.895Z,15.20
2022-11-27T05:37:16.449Z,14.20
2022-11-27T05:39:47.193Z,13.90
2022-11-27T05:42:15.065Z,15.80
2022-11-27T05:44:43.311Z,12.75
2022-11-27T05:47:12.654Z,15.45
2022-11-27T05:49:40.494Z,17.38
2022-11-27T05:52:08.438Z,13.48
2022-11-27T05:54:36.278Z,14.73
2022-11-27T05:57:05.337Z,14.38
2022-11-27T05:59:33.308Z,16.67
2022-11-27T06:02:01.194Z,13.80
2022-11-27T06:04:30.355Z,14.45
2022-11-27T06:06:58.316Z,18.42
2022-11-27T06:09:26.241Z,20.33
2022-11-27T06:11:54.174Z,19.17
2022-11-27T06:14:22.044Z,20.25
2022-11-27T06:16:49.934Z,17.42
2022-11-27T06:19:17.883Z,15.90
2022-11-27T06:21:47.965Z,17.27
2022-11-27T06:24:15.869Z,17.52
2022-11-27T06:26:43.781Z,17.58
2022-11-27T06:29:12.113Z,15.38
2022-11-27T06:31:40.578Z,15.63
2022-11-27T06:34:08.891Z,18.52
2022-11-27T06:36:40.086Z,17.58
2022-11-27T06:39:13.926Z,19.52
2022-11-27T06:41:44.473Z,16.60
2022-11-27T06:44:12.285Z,16.65
2022-11-27T06:46:40.664Z,18.42
2022-11-27T06:49:10.924Z,17.52
2022-11-27T06:51:38.748Z,19.10
2022-11-27T06:54:06.789Z,16.60
2022-11-27T06:56:35.972Z,17.42
2022-11-27T06:59:04.668Z,20.67
2022-11-27T07:01:32.805Z,17.38
2022-11-27T07:04:01.655Z,16.88
2022-11-27T07:06:31.117Z,18.52
2022-11-27T07:08:59.108Z,18.45
2022-11-27T07:11:29.347Z,14.95
2022-11-27T07:14:03.371Z,17.88
2022-11-27T07:16:33.750Z,18.80
2022-11-27T07:19:03.500Z,17.45
2022-11-27T07:21:31.844Z,19.42
2022-11-27T07:24:03.808Z,16.13
2022-11-27T07:26:32.244Z,15.35
2022-11-27T07:29:01.539Z,19.02
2022-11-27T07:31:30.603Z,17.27
2022-11-27T07:33:59.014Z,16.23
2022-11-27T07:36:29.047Z,14.48
2022-11-27T07:38:57.999Z,18.95
2022-11-27T07:41:30.590Z,21.33
2022-11-27T07:44:03.144Z,20.95
2022-11-27T07:46:31.221Z,16.58
2022-11-27T07:49:00.568Z,15.55
2022-11-27T07:51:28.963Z,19.67
2022-11-27T07:53:56.905Z,19.35
2022-11-27T07:56:24.686Z,19.17
2022-11-27T07:58:53.716Z,17.15
2022-11-27T08:01:23.011Z,19.05
2022-11-27T08:03:51.211Z,20.00
2022-11-27T08:06:20.849Z,20.83
2022-11-27T08:08:48.836Z,23.33
2022-11-27T08:11:21.386Z,18.25
2022-11-27T08:13:51.598Z,19.60
2022-11-27T08:16:20.350Z,13.60
2022-11-27T08:18:49.913Z,18.05
2022-11-27T08:21:18.191Z,16.95
2022-11-27T08:23:47.040Z,21.38
2022-11-27T08:26:15.221Z,17.02
2022-11-27T08:28:43.640Z,14.73
2022-11-27T08:31:16.287Z,15.15
2022-11-27T08:33:44.240Z,17.38
2022-11-27T08:36:18.289Z,19.98
2022-11-27T08:38:46.576Z,15.82
2022-11-27T08:41:15.015Z,23.55
2022-11-27T08:43:42.825Z,22.10
2022-11-27T08:46:11.296Z,19.05
2022-11-27T08:48:39.162Z,17.70
2022-11-27T08:51:09.098Z,18.92
2022-11-27T08:53:38.906Z,23.35
2022-11-27T08:56:10.899Z,18.25
2022-11-27T08:58:40.991Z,17.52
2022-11-27T09:01:12.130Z,18.10
2022-11-27T09:03:40.124Z,18.02
2022-11-27T09:06:10.170Z,23.02
2022-11-27T09:08:40.323Z,23.08
2022-11-27T09:11:09.013Z,20.10
2022-11-27T09:13:37.770Z,18.17
2022-11-27T09:16:07.224Z,16.60
2022-11-27T09:18:35.632Z,15.77
2022-11-27T09:21:05.097Z,16.48
2022-11-27T09:23:33.562Z,16.33
2022-11-27T09:26:04.041Z,20.35
2022-11-27T09:28:33.067Z,19.25
2022-11-27T09:31:03.246Z,20.90
2022-11-27T09:33:33.190Z,22.88
2022-11-27T09:36:05.808Z,16.95
2022-11-27T09:38:33.974Z,22.25
2022-11-27T09:41:11.108Z,17.27
2022-11-27T09:43:47.017Z,17.27
2022-11-27T09:46:26.485Z,19.40
2022-11-27T09:48:56.567Z,19.35
2022-11-27T09:51:31.750Z,17.38
2022-11-27T09:54:05.562Z,17.38
2022-11-27T09:56:36.446Z,21.85
2022-11-27T09:59:12.675Z,14.77
2022-11-27T10:01:47.482Z,17.58
2022-11-27T10:04:20.965Z,18.20
2022-11-27T10:07:10.359Z,16.90
2022-11-27T10:09:52.549Z,15.18
2022-11-27T10:12:34.479Z,17.77
2022-11-27T10:15:08.175Z,17.83
2022-11-27T10:17:41.220Z,17.00
2022-11-27T10:20:23.443Z,15.88
2022-11-27T10:23:00.196Z,19.27
2022-11-27T10:25:33.164Z,17.08
2022-11-27T10:28:15.927Z,19.52
2022-11-27T10:30:51.690Z,13.90
2022-11-27T10:33:24.944Z,19.52
2022-11-27T10:35:54.129Z,18.30
2022-11-27T10:38:26.515Z,18.92
2022-11-27T10:41:06.405Z,18.35
2022-11-27T10:43:37.239Z,19.52
2022-11-27T10:46:12.581Z,19.95
2022-11-27T10:48:41.722Z,16.38
2022-11-27T10:51:16.884Z,17.88
2022-11-27T10:53:47.280Z,19.08
2022-11-27T10:56:30.922Z,15.15
2022-11-27T10:59:01.990Z,16.02
2022-11-27T11:01:42.003Z,17.20
2022-11-27T11:04:31.665Z,17.35
2022-11-27T11:07:00.181Z,15.25
2022-11-27T11:09:30.830Z,14.48
2022-11-27T11:12:07.849Z,14.60
2022-11-27T11:14:37.668Z,15.95
2022-11-27T11:17:17.391Z,15.63
2022-11-27T11:19:46.655Z,15.75
2022-11-27T11:22:16.824Z,15.32
2022-11-27T11:24:48.833Z,15.65
2022-11-27T11:27:21.378Z,19.73
2022-11-27T11:29:54.035Z,22.00
2022-11-27T11:32:25.663Z,21.38
2022-11-27T11:35:01.209Z,19.75
2022-11-27T11:37:32.324Z,18.17
2022-11-27T11:40:02.323Z,18.98
2022-11-27T11:42:32.060Z,14.90
2022-11-27T11:45:06.662Z,18.10
2022-11-27T11:47:34.605Z,19.20
2022-11-27T11:50:02.400Z,18.58
2022-11-27T11:52:48.047Z,16.67
2022-11-27T11:55:20.940Z,16.73
2022-11-27T11:58:24.026Z,16.52
2022-11-27T12:01:25.851Z,19.55
2022-11-27T12:04:06.988Z,21.00
2022-11-27T12:06:51.287Z,21.70
2022-11-27T12:09:35.742Z,18.10
2022-11-27T12:12:14.906Z,20.02
2022-11-27T12:14:47.417Z,17.92
2022-11-27T12:17:33.095Z,18.90
2022-11-27T12:20:18.249Z,14.93
2022-11-27T12:23:25.656Z,19.98
2022-11-27T12:26:05.518Z,17.10
2022-11-27T12:29:00.562Z,17.92
2022-11-27T12:31:39.076Z,18.05
2022-11-27T12:34:18.478Z,17.63
2022-11-27T12:37:14.075Z,21.25
2022-11-27T12:39:56.884Z,18.08
2022-11-27T12:42:29.095Z,18.80
2022-11-27T12:45:02.397Z,22.65
2022-11-27T12:47:38.936Z,22.23
2022-11-27T12:50:17.649Z,19.15
2022-11-27T12:52:52.368Z,21.00
2022-11-27T12:55:23.618Z,19.00
2022-11-27T12:57:55.729Z,21.77
2022-11-27T13:00:26.131Z,19.55
2022-11-27T13:03:03.764Z,23.10
2022-11-27T13:05:40.234Z,22.00
2022-11-27T13:08:15.074Z,19.75
2022-11-27T13:10:48.382Z,19.25
2022-11-27T13:13:24.416Z,21.58
2022-11-27T13:15:59.283Z,21.80
2022-11-27T13:18:33.798Z,24.85
2022-11-27T13:21:06.883Z,20.48
2022-11-27T13:23:36.232Z,23.40
2022-11-27T13:26:07.429Z,24.27
2022-11-27T13:28:41.189Z,26.25
2022-11-27T13:31:19.830Z,22.73
2022-11-27T13:33:48.994Z,26.10
2022-11-27T13:36:24.495Z,26.23
2022-11-27T13:38:58.813Z,26.52
2022-11-27T13:41:33.585Z,29.40
2022-11-27T13:44:02.764Z,25.45
2022-11-27T13:46:33.487Z,31.98
2022-11-27T13:49:03.848Z,27.83
2022-11-27T13:51:35.903Z,29.85
2022-11-27T13:54:12.016Z,27.75
2022-11-27T13:56:40.982Z,26.88
2022-11-27T13:59:19.953Z,33.45
2022-11-27T14:01:59.173Z,32.47
2022-11-27T14:04:27.381Z,28.42
2022-11-27T14:07:03.198Z,30.30
2022-11-27T14:09:38.140Z,25.55
2022-11-27T14:12:17.460Z,27.92
2022-11-27T14:14:46.478Z,22.98
2022-11-27T14:17:27.433Z,24.52
2022-11-27T14:20:06.832Z,28.23
2022-11-27T14:23:09.898Z,26.65
2022-11-27T14:25:36.519Z,28.60
2022-11-27T14:28:15.546Z,27.77
2022-11-27T14:30:48.098Z,27.17
2022-11-27T14:33:21.097Z,27.67
2022-11-27T14:35:50.829Z,29.65
2022-11-27T14:38:20.495Z,36.60
2022-11-27T14:40:48.776Z,33.35
2022-11-27T14:43:18.782Z,35.35
2022-11-27T14:45:49.639Z,32.50
2022-11-27T14:48:22.219Z,38.70
2022-11-27T14:50:52.125Z,31.05
2022-11-27T14:53:23.772Z,40.75
2022-11-27T14:55:55.976Z,32.17
2022-11-27T14:58:27.712Z,33.20
2022-11-27T15:00:58.916Z,37.70
2022-11-27T15:03:27.850Z,41.97
2022-11-27T15:05:58.869Z,41.00
2022-11-27T15:08:29.584Z,38.72
2022-11-27T15:10:59.726Z,48.00
2022-11-27T15:13:29.525Z,55.78
2022-11-27T15:16:02.924Z,41.10
2022-11-27T15:18:33.589Z,41.47
2022-11-27T15:21:03.071Z,35.28
2022-11-27T15:23:35.140Z,36.63
2022-11-27T15:26:15.105Z,40.25
2022-11-27T15:28:54.098Z,35.53
2022-11-27T15:31:28.472Z,35.42
2022-11-27T15:33:58.897Z,31.40
2022-11-27T15:36:27.606Z,31.20
2022-11-27T15:39:16.500Z,33.78
2022-11-27T15:41:52.372Z,42.80
2022-11-27T15:44:22.528Z,38.00
2022-11-27T15:46:51.622Z,36.50
2022-11-27T15:49:20.827Z,29.52
2022-11-27T15:51:48.705Z,41.75
2022-11-27T15:54:19.127Z,48.10
2022-11-27T15:56:48.081Z,36.08
2022-11-27T15:59:18.518Z,46.45
2022-11-27T16:01:46.500Z,47.33
2022-11-27T16:04:14.470Z,34.45
2022-11-27T16:06:42.493Z,70.63
2022-11-27T16:09:10.721Z,34.38
2022-11-27T16:11:40.223Z,54.88
2022-11-27T16:14:08.437Z,45.25
2022-11-27T16:16:36.515Z,37.53
2022-11-27T16:19:06.490Z,69.00
2022-11-27T16:21:36.902Z,47.17
2022-11-27T16:24:07.181Z,79.53
2022-11-27T16:26:36.742Z,30.80
2022-11-27T16:29:06.296Z,93.30
2022-11-27T16:31:36.865Z,83.00
2022-11-27T16:34:06.029Z,49.25
2022-11-27T16:36:37.165Z,56.13
2022-11-27T16:39:05.242Z,50.53
2022-11-27T16:41:33.154Z,49.35
2022-11-27T16:44:01.343Z,87.60
2022-11-27T16:46:31.660Z,79.03
2022-11-27T16:49:01.443Z,114.80
2022-11-27T16:51:32.044Z,65.82
2022-11-27T16:54:01.560Z,26.17
2022-11-27T16:56:31.191Z,48.45
2022-11-27T16:59:03.142Z,80.25
2022-11-27T17:01:36.271Z,66.55
2022-11-27T17:04:07.165Z,65.03
2022-11-27T17:06:35.724Z,57.60
2022-11-27T17:09:07.094Z,49.72
2022-11-27T17:11:38.846Z,74.47
2022-11-27T17:14:08.905Z,56.25
2022-11-27T17:16:41.173Z,69.22
2022-11-27T17:19:12.531Z,67.28
2022-11-27T17:21:40.936Z,50.13
2022-11-27T17:24:15.215Z,60.97
2022-11-27T17:26:44.454Z,32.67
2022-11-27T17:29:12.817Z,26.50
2022-11-27T17:31:43.776Z,55.30
2022-11-27T17:34:14.232Z,54.42
2022-11-27T17:36:45.161Z,47.72
2022-11-27T17:39:15.067Z,44.70
2022-11-27T17:41:45.264Z,46.42
2022-11-27T17:44:13.824Z,47.22
2022-11-27T17:46:49.902Z,49.72
2022-11-27T17:49:19.415Z,68.50
2022-11-27T17:51:49.887Z,30.25
2022-11-27T17:54:18.466Z,40.38
2022-11-27T17:56:51.136Z,36.80
2022-11-27T17:59:19.514Z,39.28
2022-11-27T18:01:51.325Z,74.75
2022-11-27T18:04:19.718Z,56.22
2022-11-27T18:06:47.593Z,55.25
2022-11-27T18:09:15.461Z,60.92
2022-11-27T18:11:43.730Z,85.03
2022-11-27T18:14:13.804Z,67.35
2022-11-27T18:16:42.241Z,74.40
2022-11-27T18:19:12.662Z,40.58
2022-11-27T18:21:41.066Z,43.15
2022-11-27T18:24:26.132Z,45.40
2022-11-27T18:27:10.347Z,56.40
2022-11-27T18:29:41.163Z,51.13
2022-11-27T18:32:09.991Z,41.25
2022-11-27T18:34:39.633Z,33.60
2022-11-27T18:37:07.634Z,35.60
2022-11-27T18:39:36.530Z,39.80
2022-11-27T18:42:05.670Z,40.25
2022-11-27T18:44:37.262Z,51.70
2022-11-27T18:47:11.040Z,73.32
2022-11-27T18:49:42.782Z,56.15
2022-11-27T18:52:12.890Z,52.92
2022-11-27T18:54:40.728Z,52.65
2022-11-27T18:57:10.106Z,52.38
2022-11-27T18:59:38.940Z,60.78
2022-11-27T19:02:07.123Z,63.22
2022-11-27T19:04:37.476Z,52.47
2022-11-27T19:07:07.404Z,51.70
2022-11-27T19:09:35.431Z,46.88
2022-11-27T19:12:03.212Z,49.97
2022-11-27T19:14:31.087Z,49.38
2022-11-27T19:16:59.385Z,64.80
2022-11-27T19:22:17.158Z,54.05
2022-11-27T19:24:45.033Z,54.15
2022-11-27T19:27:12.899Z,58.33
2022-11-27T19:29:43.598Z,51.97
2022-11-27T19:32:11.680Z,48.28
2022-11-27T19:34:40.434Z,55.33
2022-11-27T19:37:08.668Z,50.28
2022-11-27T19:39:37.863Z,46.67
2022-11-27T19:42:06.301Z,50.25
2022-11-27T19:44:34.351Z,56.70
2022-11-27T19:47:02.403Z,48.28
2022-11-27T19:49:30.577Z,51.22
2022-11-27T19:51:58.717Z,59.42
2022-11-27T19:54:26.862Z,48.38
2022-11-27T19:56:56.602Z,52.92
2022-11-27T19:59:26.205Z,84.57
2022-11-27T20:01:54.213Z,45.00
2022-11-27T20:04:22.220Z,58.65
2022-11-27T20:06:52.784Z,68.72
2022-11-27T20:09:20.635Z,47.47
2022-11-27T20:11:48.970Z,51.50
2022-11-27T20:14:19.448Z,81.05
2022-11-27T20:16:47.445Z,61.45
2022-11-27T20:19:16.024Z,58.38
2022-11-27T20:21:43.883Z,82.13
2022-11-27T20:24:12.212Z,101.80
2022-11-27T20:26:42.784Z,85.22
2022-11-27T20:29:11.758Z,71.28
2022-11-27T20:31:45.016Z,66.75
2022-11-27T20:34:19.053Z,60.15
2022-11-27T20:36:47.882Z,68.05
2022-11-27T20:39:20.971Z,64.63
2022-11-27T20:41:50.683Z,62.47
2022-11-27T20:44:18.667Z,72.30
2022-11-27T20:46:48.116Z,75.18
2022-11-27T20:49:16.393Z,67.38
2022-11-27T20:51:44.353Z,64.50
2022-11-27T20:54:12.870Z,57.25
2022-11-27T20:56:43.195Z,53.47
2022-11-27T20:59:12.432Z,64.90
2022-11-27T21:01:42.511Z,56.15
2022-11-27T21:04:19.900Z,60.28
2022-11-27T21:06:48.161Z,53.25
2022-11-27T21:09:16.016Z,56.22
2022-11-27T21:11:44.686Z,56.50
2022-11-27T21:14:15.009Z,46.40
2022-11-27T21:16:46.927Z,41.50
2022-11-27T21:19:20.883Z,41.63
2022-11-27T21:21:49.052Z,47.13
2022-11-27T21:24:17.250Z,45.63
2022-11-27T21:26:45.588Z,43.22
2022-11-27T21:29:13.779Z,40.72
2022-11-27T21:31:47.259Z,42.83
2022-11-27T21:34:16.967Z,45.28
2022-11-27T21:36:45.270Z,37.95
2022-11-27T21:39:20.157Z,37.58
2022-11-27T21:41:49.992Z,38.05
2022-11-27T21:44:18.374Z,37.83
2022-11-27T21:46:47.248Z,38.95
2022-11-27T21:49:20.078Z,38.20
2022-11-27T21:51:52.303Z,38.55
2022-11-27T21:54:20.592Z,29.98
2022-11-27T21:56:51.829Z,39.38
2022-11-27T21:59:20.054Z,37.38
2022-11-27T22:01:48.258Z,35.88
2022-11-27T22:04:17.897Z,36.33
2022-11-27T22:06:46.202Z,31.27
2022-11-27T22:09:16.001Z,36.42
2022-11-27T22:11:46.613Z,38.50
2022-11-27T22:14:16.324Z,36.60
2022-11-27T22:16:46.420Z,35.55
2022-11-27T22:19:15.292Z,37.70
2022-11-27T22:21:45.769Z,37.47
2022-11-27T22:24:19.029Z,33.88
2022-11-27T22:26:48.560Z,44.33
2022-11-27T22:29:16.941Z,29.67
2022-11-27T22:31:45.093Z,30.70
2022-11-27T22:34:13.749Z,38.85
2022-11-27T22:36:41.585Z,27.90
2022-11-27T22:39:11.152Z,31.50
2022-11-27T22:41:40.674Z,35.28
2022-11-27T22:44:09.026Z,39.72
2022-11-27T22:46:37.669Z,36.05
2022-11-27T22:49:07.037Z,31.30
2022-11-27T22:51:36.562Z,34.38
2022-11-27T22:54:06.070Z,37.55
2022-11-27T22:56:36.156Z,40.75
2022-11-27T22:59:30.953Z,30.27
2022-11-27T23:01:54.966Z,34.80
2022-11-27T23:04:23.192Z,41.83
2022-11-27T23:06:51.015Z,38.45
2022-11-27T23:09:19.041Z,33.67
2022-11-27T23:11:49.138Z,35.78
2022-11-27T23:14:17.085Z,37.95
2022-11-27T23:16:45.364Z,34.33
2022-11-27T23:19:13.241Z,36.25
2022-11-27T23:21:41.570Z,36.83
2022-11-27T23:24:13.307Z,35.33
2022-11-27T23:26:41.238Z,36.10
2022-11-27T23:29:10.687Z,30.50
2022-11-27T23:31:39.411Z,40.28
2022-11-27T23:34:09.657Z,31.80
2022-11-27T23:36:38.637Z,27.00
2022-11-27T23:39:08.999Z,31.77
2022-11-27T23:41:36.951Z,30.83
2022-11-27T23:44:04.997Z,34.78
2022-11-27T23:46:34.216Z,35.40
2022-11-27T23:49:02.258Z,32.67
2022-11-27T23:51:32.126Z,32.28
2022-11-27T23:54:01.194Z,31.45
2022-11-27T23:56:31.229Z,32.38
2022-11-27T23:59:00.493Z,39.72
